createdAt,value
2016-12-21T00:00:43.569Z,291
2016-12-21T00:01:43.758Z,291
2016-12-21T00:02:43.925Z,290
2016-12-21T00:03:44.066Z,291
2016-12-21T00:04:44.310Z,290
2016-12-21T00:05:44.391Z,290
2016-12-21T00:06:44.467Z,291
2016-12-21T00:07:44.671Z,291
2016-12-21T00:08:44.763Z,290
2016-12-21T00:09:44.887Z,290
2016-12-21T00:10:44.960Z,290
2016-12-21T00:11:45.070Z,291
2016-12-21T00:12:45.222Z,291
2016-12-21T00:13:45.349Z,291
2016-12-21T00:14:45.514Z,290
2016-12-21T00:15:45.575Z,290
2016-12-21T00:16:45.836Z,290
2016-12-21T00:17:46.029Z,290
2016-12-21T00:18:46.148Z,291
2016-12-21T00:19:46.267Z,290
2016-12-21T00:20:46.357Z,291
2016-12-21T00:21:46.453Z,290
2016-12-21T00:22:46.614Z,290
2016-12-21T00:23:46.735Z,291
2016-12-21T00:24:46.872Z,291
2016-12-21T00:25:46.959Z,290
2016-12-21T00:26:47.082Z,291
2016-12-21T00:27:47.160Z,290
2016-12-21T00:28:47.273Z,290
2016-12-21T00:29:47.351Z,290
2016-12-21T00:30:47.427Z,290
2016-12-21T00:31:47.646Z,291
2016-12-21T00:32:47.775Z,290
2016-12-21T00:33:47.882Z,290
2016-12-21T00:34:47.991Z,290
2016-12-21T00:35:48.070Z,290
2016-12-21T00:36:48.177Z,291
2016-12-21T00:37:48.286Z,290
2016-12-21T00:38:48.422Z,291
2016-12-21T00:39:48.607Z,290
2016-12-21T00:40:48.768Z,290
2016-12-21T00:41:48.932Z,290
2016-12-21T00:42:49.008Z,290
2016-12-21T00:43:49.137Z,290
2016-12-21T00:44:49.245Z,290
2016-12-21T00:45:49.322Z,290
2016-12-21T00:46:49.472Z,290
2016-12-21T00:47:49.659Z,290
2016-12-21T00:48:49.743Z,291
2016-12-21T00:49:49.914Z,291
2016-12-21T00:50:49.994Z,291
2016-12-21T00:51:50.128Z,290
2016-12-21T00:52:50.300Z,290
2016-12-21T00:53:50.421Z,290
2016-12-21T00:54:50.556Z,291
2016-12-21T00:55:50.705Z,290
2016-12-21T00:56:50.793Z,290
2016-12-21T00:57:50.953Z,290
2016-12-21T00:58:51.026Z,290
2016-12-21T00:59:51.115Z,290
2016-12-21T01:00:51.190Z,290
2016-12-21T01:01:51.325Z,290
2016-12-21T01:02:51.488Z,290
2016-12-21T01:03:51.664Z,290
2016-12-21T01:04:51.915Z,291
2016-12-21T01:05:52.095Z,290
2016-12-21T01:06:52.193Z,291
2016-12-21T01:07:52.309Z,290
2016-12-21T01:08:52.430Z,291
2016-12-21T01:09:52.658Z,290
2016-12-21T01:10:52.724Z,290
2016-12-21T01:11:52.900Z,290
2016-12-21T01:12:53.168Z,290
2016-12-21T01:13:53.267Z,291
2016-12-21T01:14:53.432Z,291
2016-12-21T01:15:53.541Z,290
2016-12-21T01:16:53.619Z,291
2016-12-21T01:17:53.776Z,291
2016-12-21T01:18:53.845Z,291
2016-12-21T01:19:53.993Z,291
2016-12-21T01:20:54.064Z,291
2016-12-21T01:21:54.183Z,291
2016-12-21T01:22:54.309Z,291
2016-12-21T01:23:54.462Z,291
2016-12-21T01:24:54.580Z,291
2016-12-21T01:25:54.671Z,290
2016-12-21T01:26:54.801Z,290
2016-12-21T01:27:54.953Z,291
2016-12-21T01:28:55.072Z,291
2016-12-21T01:29:55.229Z,291
2016-12-21T01:30:55.380Z,291
2016-12-21T01:31:55.513Z,291
2016-12-21T01:32:55.636Z,291
2016-12-21T01:33:55.754Z,291
2016-12-21T01:34:55.899Z,291
2016-12-21T01:35:56.020Z,291
2016-12-21T01:36:56.146Z,291
2016-12-21T01:37:56.375Z,291
2016-12-21T01:38:56.513Z,291
2016-12-21T01:39:56.679Z,291
2016-12-21T01:40:56.744Z,291
2016-12-21T01:41:56.827Z,291
2016-12-21T01:42:56.938Z,291
2016-12-21T01:43:57.045Z,291
2016-12-21T01:44:57.198Z,291
2016-12-21T01:45:57.268Z,291
2016-12-21T01:46:57.449Z,291
2016-12-21T01:47:57.583Z,292
2016-12-21T01:48:57.714Z,292
2016-12-21T01:49:57.865Z,292
2016-12-21T01:50:58.054Z,292
2016-12-21T01:51:58.181Z,292
2016-12-21T01:52:58.373Z,292
2016-12-21T01:53:58.502Z,292
2016-12-21T01:55:00.130Z,292
2016-12-21T01:55:58.690Z,292
2016-12-21T01:56:58.866Z,292
2016-12-21T01:57:58.928Z,292
2016-12-21T01:58:59.059Z,293
2016-12-21T01:59:59.167Z,292
2016-12-21T02:00:59.305Z,293
2016-12-21T02:01:59.525Z,292
2016-12-21T02:02:59.808Z,293
2016-12-21T02:03:59.976Z,293
2016-12-21T02:05:00.116Z,293
2016-12-21T02:06:00.342Z,293
2016-12-21T02:07:00.613Z,293
2016-12-21T02:08:00.723Z,293
2016-12-21T02:09:00.928Z,293
2016-12-21T02:10:01.078Z,293
2016-12-21T02:11:01.274Z,293
2016-12-21T02:12:01.432Z,293
2016-12-21T02:13:01.621Z,293
2016-12-21T02:14:01.774Z,292
2016-12-21T02:15:01.898Z,293
2016-12-21T02:16:02.067Z,293
2016-12-21T02:17:02.241Z,293
2016-12-21T02:18:02.463Z,294
2016-12-21T02:19:02.722Z,294
2016-12-21T02:20:02.887Z,297
2016-12-21T02:21:03.055Z,296
2016-12-21T05:08:12.227Z,294
2016-12-21T05:09:12.410Z,293
2016-12-21T05:11:39.196Z,293
2016-12-21T05:12:39.428Z,293
2016-12-21T05:13:39.552Z,293
2016-12-21T05:16:06.980Z,293
2016-12-21T05:17:07.150Z,293
2016-12-21T05:18:07.334Z,293
2016-12-21T05:19:07.515Z,294
2016-12-21T05:20:07.709Z,293
2016-12-21T05:21:07.878Z,293
2016-12-21T05:22:08.136Z,293
2016-12-21T05:23:08.290Z,293
2016-12-21T05:24:08.458Z,293
2016-12-21T05:25:08.615Z,293
2016-12-21T05:26:08.787Z,293
2016-12-21T05:27:09.002Z,293
2016-12-21T05:28:09.271Z,293
2016-12-21T05:29:09.469Z,293
2016-12-21T05:30:09.620Z,293
2016-12-21T05:31:09.734Z,294
2016-12-21T05:32:09.874Z,294
2016-12-21T05:33:10.034Z,294
2016-12-21T05:34:10.299Z,294
2016-12-21T05:35:10.393Z,294
2016-12-21T05:36:10.469Z,293
2016-12-21T05:37:10.710Z,294
2016-12-21T05:38:10.794Z,293
2016-12-21T05:39:10.932Z,294
2016-12-21T05:40:11.080Z,294
2016-12-21T05:41:11.261Z,293
2016-12-21T05:42:11.461Z,293
2016-12-21T05:43:11.573Z,294
2016-12-21T05:44:11.686Z,293
2016-12-21T05:45:11.845Z,294
2016-12-21T05:46:11.948Z,294
2016-12-21T05:47:12.004Z,294
2016-12-21T05:48:12.291Z,294
2016-12-21T05:49:12.368Z,294
2016-12-21T05:50:12.468Z,294
2016-12-21T05:51:12.631Z,294
2016-12-21T05:52:12.868Z,294
2016-12-21T05:53:13.069Z,293
2016-12-21T05:54:13.134Z,294
2016-12-21T05:55:13.345Z,294
2016-12-21T05:56:13.693Z,294
2016-12-21T05:57:13.881Z,294
2016-12-21T05:58:14.022Z,293
2016-12-21T05:59:14.189Z,294
2016-12-21T06:00:14.289Z,294
2016-12-21T06:01:14.471Z,293
2016-12-21T06:02:14.606Z,294
2016-12-21T06:03:14.812Z,293
2016-12-21T06:04:14.913Z,294
2016-12-21T06:05:15.177Z,293
2016-12-21T06:06:15.219Z,294
2016-12-21T06:07:15.406Z,293
2016-12-21T06:08:15.561Z,293
2016-12-21T06:09:15.763Z,294
2016-12-21T06:10:15.843Z,294
2016-12-21T06:11:16.063Z,294
2016-12-21T06:12:16.260Z,293
2016-12-21T06:13:16.567Z,294
2016-12-21T06:14:16.570Z,294
2016-12-21T06:15:16.821Z,293
2016-12-21T06:16:16.950Z,293
2016-12-21T06:17:17.130Z,293
2016-12-21T06:18:17.379Z,293
2016-12-21T06:19:17.584Z,294
2016-12-21T06:20:17.816Z,293
2016-12-21T06:21:18.083Z,293
2016-12-21T06:22:18.275Z,294
2016-12-21T06:23:18.434Z,293
2016-12-21T06:24:18.661Z,293
2016-12-21T06:25:18.883Z,294
2016-12-21T06:26:19.061Z,293
2016-12-21T06:27:19.189Z,294
2016-12-21T06:28:19.262Z,294
2016-12-21T06:29:19.420Z,293
2016-12-21T06:30:19.584Z,293
2016-12-21T06:31:19.700Z,294
2016-12-21T06:32:19.852Z,294
2016-12-21T06:33:19.978Z,294
2016-12-21T06:34:20.257Z,294
2016-12-21T06:35:20.444Z,294
2016-12-21T06:36:20.658Z,294
2016-12-21T06:37:20.812Z,293
2016-12-21T06:38:20.886Z,293
2016-12-21T06:39:21.087Z,294
2016-12-21T06:40:21.342Z,294
2016-12-21T06:41:21.655Z,293
2016-12-21T06:42:21.775Z,293
2016-12-21T06:43:21.878Z,293
2016-12-21T06:44:22.087Z,293
2016-12-21T06:45:22.302Z,294
2016-12-21T06:46:22.441Z,294
2016-12-21T06:47:22.627Z,294
2016-12-21T06:48:22.828Z,295
2016-12-21T06:49:22.991Z,294
2016-12-21T06:50:23.201Z,294
2016-12-21T06:51:23.528Z,294
2016-12-21T06:52:23.647Z,294
2016-12-21T06:53:23.820Z,294
2016-12-21T06:54:24.018Z,293
2016-12-21T06:55:24.222Z,293
2016-12-21T06:56:24.370Z,293
2016-12-21T06:57:24.511Z,293
2016-12-21T06:58:24.715Z,293
2016-12-21T06:59:25.097Z,293
2016-12-21T07:00:25.137Z,293
2016-12-21T07:01:25.257Z,294
2016-12-21T07:02:25.389Z,293
2016-12-21T07:03:25.579Z,293
2016-12-21T07:04:25.692Z,294
2016-12-21T07:05:25.840Z,293
2016-12-21T07:06:26.064Z,294
2016-12-21T07:07:26.255Z,294
2016-12-21T07:08:26.486Z,293
2016-12-21T07:09:26.688Z,293
2016-12-21T07:10:26.915Z,294
2016-12-21T07:11:27.093Z,293
2016-12-21T07:12:27.232Z,293
2016-12-21T07:13:27.587Z,293
2016-12-21T07:14:27.993Z,293
2016-12-21T07:15:28.119Z,293
2016-12-21T07:16:28.249Z,293
2016-12-21T07:17:28.346Z,294
2016-12-21T07:18:28.553Z,294
2016-12-21T07:19:28.768Z,293
2016-12-21T07:20:28.896Z,293
2016-12-21T07:21:29.115Z,293
2016-12-21T07:22:29.295Z,293
2016-12-21T07:23:29.348Z,293
2016-12-21T07:24:29.504Z,293
2016-12-21T07:25:29.725Z,293
2016-12-21T07:26:29.886Z,293
2016-12-21T07:27:30.046Z,293
2016-12-21T07:28:30.073Z,294
2016-12-21T07:29:30.245Z,293
2016-12-21T07:30:30.449Z,293
2016-12-21T07:31:30.552Z,294
2016-12-21T07:32:30.731Z,292
2016-12-21T07:33:30.937Z,294
2016-12-21T07:34:31.039Z,293
2016-12-21T07:35:31.150Z,294
2016-12-21T07:36:31.305Z,293
2016-12-21T07:37:31.429Z,293
2016-12-21T07:38:31.683Z,293
2016-12-21T07:39:31.874Z,293
2016-12-21T07:40:32.213Z,293
2016-12-21T07:41:32.350Z,293
2016-12-21T07:42:32.541Z,293
2016-12-21T07:43:32.734Z,293
2016-12-21T07:44:32.990Z,293
2016-12-21T07:45:33.184Z,293
2016-12-21T07:46:33.329Z,293
2016-12-21T07:47:33.505Z,293
2016-12-21T07:48:33.749Z,293
2016-12-21T07:49:33.830Z,293
2016-12-21T07:50:34.060Z,293
2016-12-21T07:51:34.229Z,293
2016-12-21T07:52:34.442Z,293
2016-12-21T07:53:34.578Z,293
2016-12-21T07:54:34.788Z,293
2016-12-21T07:55:34.885Z,293
2016-12-21T07:56:35.124Z,293
2016-12-21T07:57:35.383Z,293
2016-12-21T07:58:35.516Z,292
2016-12-21T07:59:35.744Z,293
2016-12-21T08:00:35.989Z,292
2016-12-21T08:01:36.459Z,292
2016-12-21T08:02:36.331Z,292
2016-12-21T08:03:36.577Z,292
2016-12-21T08:04:36.724Z,292
2016-12-21T08:05:36.889Z,292
2016-12-21T08:06:37.187Z,292
2016-12-21T08:07:37.423Z,292
2016-12-21T08:08:37.612Z,292
2016-12-21T08:09:37.798Z,292
2016-12-21T08:10:37.972Z,292
2016-12-21T08:11:38.052Z,292
2016-12-21T08:12:38.249Z,292
2016-12-21T08:13:38.410Z,292
2016-12-21T08:14:38.587Z,292
2016-12-21T08:15:38.782Z,292
2016-12-21T08:16:38.944Z,291
2016-12-21T08:17:39.036Z,291
2016-12-21T08:18:39.290Z,292
2016-12-21T08:19:39.395Z,292
2016-12-21T08:20:39.662Z,292
2016-12-21T08:21:39.720Z,291
2016-12-21T08:22:39.998Z,291
2016-12-21T08:23:40.245Z,292
2016-12-21T08:24:40.512Z,291
2016-12-21T08:25:40.643Z,291
2016-12-21T08:26:40.788Z,291
2016-12-21T08:27:41.044Z,292
2016-12-21T08:28:41.265Z,291
2016-12-21T08:29:41.524Z,291
2016-12-21T08:30:41.893Z,291
2016-12-21T08:31:42.075Z,291
2016-12-21T08:32:42.292Z,291
2016-12-21T08:33:42.352Z,291
2016-12-21T08:34:42.517Z,291
2016-12-21T08:35:42.660Z,291
2016-12-21T08:36:43.003Z,291
2016-12-21T08:37:43.001Z,291
2016-12-21T08:38:43.280Z,291
2016-12-21T08:39:43.318Z,291
2016-12-21T08:40:43.478Z,291
2016-12-21T08:41:43.769Z,291
2016-12-21T08:42:43.989Z,291
2016-12-21T08:43:44.222Z,290
2016-12-21T08:44:44.431Z,291
2016-12-21T08:45:44.611Z,291
2016-12-21T08:46:44.856Z,291
2016-12-21T08:47:45.019Z,291
2016-12-21T08:48:45.232Z,291
2016-12-21T08:49:45.439Z,290
2016-12-21T08:50:45.764Z,291
2016-12-21T08:51:45.977Z,290
2016-12-21T08:52:46.251Z,291
2016-12-21T08:53:46.462Z,291
2016-12-21T08:54:46.741Z,291
2016-12-21T08:55:46.900Z,290
2016-12-21T08:56:47.085Z,291
2016-12-21T08:57:47.290Z,291
2016-12-21T08:58:47.429Z,290
2016-12-21T08:59:47.775Z,291
2016-12-21T09:00:47.888Z,291
2016-12-21T09:01:48.206Z,291
2016-12-21T09:02:48.547Z,290
2016-12-21T09:03:48.682Z,291
2016-12-21T09:04:48.916Z,291
2016-12-21T09:05:49.048Z,291
2016-12-21T09:06:49.306Z,290
2016-12-21T09:07:49.654Z,291
2016-12-21T09:08:49.646Z,291
2016-12-21T09:09:49.922Z,290
2016-12-21T09:10:50.079Z,290
2016-12-21T09:11:50.551Z,291
2016-12-21T09:12:50.691Z,291
2016-12-21T09:13:50.967Z,291
2016-12-21T09:14:51.143Z,291
2016-12-21T09:15:51.333Z,291
2016-12-21T09:16:51.599Z,291
2016-12-21T09:17:51.939Z,291
2016-12-21T09:18:51.991Z,291
2016-12-21T09:19:52.196Z,290
2016-12-21T09:20:52.397Z,290
2016-12-21T09:21:52.691Z,291
2016-12-21T09:22:52.955Z,291
2016-12-21T09:23:53.161Z,291
2016-12-21T09:24:53.408Z,290
2016-12-21T09:25:53.684Z,291
2016-12-21T09:26:53.831Z,290
2016-12-21T09:27:54.074Z,290
2016-12-21T09:28:54.267Z,290
2016-12-21T09:29:54.530Z,290
2016-12-21T09:30:54.626Z,291
2016-12-21T09:31:54.934Z,290
2016-12-21T09:32:55.200Z,291
2016-12-21T09:33:55.398Z,291
2016-12-21T09:34:55.614Z,291
2016-12-21T09:35:55.646Z,291
2016-12-21T09:36:55.864Z,291
2016-12-21T09:37:56.190Z,290
2016-12-21T09:38:56.409Z,291
2016-12-21T09:39:56.589Z,290
2016-12-21T09:40:56.992Z,290
2016-12-21T09:41:57.223Z,291
2016-12-21T09:42:57.329Z,290
2016-12-21T09:43:57.803Z,290
2016-12-21T09:44:58.142Z,291
2016-12-21T09:45:58.256Z,291
2016-12-21T09:46:58.481Z,291
2016-12-21T09:47:58.576Z,290
2016-12-21T09:48:58.657Z,290
2016-12-21T09:49:58.822Z,290
2016-12-21T09:50:58.923Z,290
2016-12-21T09:51:59.100Z,291
2016-12-21T09:52:59.315Z,291
2016-12-21T09:53:59.564Z,290
2016-12-21T09:54:59.752Z,290
2016-12-21T09:55:59.948Z,291
2016-12-21T09:57:00.254Z,291
2016-12-21T09:58:00.521Z,290
2016-12-21T09:59:00.744Z,291
2016-12-21T10:00:00.976Z,290
2016-12-21T10:01:01.353Z,291
2016-12-21T10:02:01.608Z,290
2016-12-21T10:03:01.775Z,290
2016-12-21T10:04:01.905Z,291
2016-12-21T10:05:02.181Z,290
2016-12-21T10:06:02.334Z,290
2016-12-21T10:07:02.662Z,291
2016-12-21T10:08:02.874Z,290
2016-12-21T10:09:03.000Z,290
2016-12-21T10:10:03.695Z,291
2016-12-21T10:11:03.799Z,290
2016-12-21T10:12:04.174Z,290
2016-12-21T10:13:04.576Z,291
2016-12-21T10:14:04.764Z,290
2016-12-21T10:15:05.089Z,291
2016-12-21T10:16:05.261Z,290
2016-12-21T10:17:05.604Z,290
2016-12-21T10:18:05.795Z,291
2016-12-21T10:19:05.981Z,291
2016-12-21T10:20:06.170Z,291
2016-12-21T10:21:06.484Z,290
2016-12-21T10:22:06.648Z,291
2016-12-21T10:23:06.926Z,290
2016-12-21T10:24:07.102Z,291
2016-12-21T10:25:07.838Z,290
2016-12-21T10:26:08.001Z,290
2016-12-21T10:27:08.209Z,290
2016-12-21T10:28:08.346Z,290
2016-12-21T10:29:08.560Z,290
2016-12-21T10:30:08.749Z,290
2016-12-21T10:31:09.172Z,290
2016-12-21T10:32:09.452Z,290
2016-12-21T10:33:09.554Z,291
2016-12-21T10:34:09.952Z,290
2016-12-21T10:35:10.133Z,291
2016-12-21T10:36:10.455Z,291
2016-12-21T10:37:10.545Z,291
2016-12-21T10:38:10.976Z,290
2016-12-21T10:39:11.240Z,290
2016-12-21T10:40:11.371Z,290
2016-12-21T10:41:11.566Z,290
2016-12-21T10:42:11.782Z,291
2016-12-21T10:43:12.085Z,290
2016-12-21T10:44:12.282Z,290
2016-12-21T10:45:12.389Z,290
2016-12-21T10:46:12.574Z,290
2016-12-21T10:47:12.791Z,290
2016-12-21T10:48:13.112Z,291
2016-12-21T10:49:13.511Z,291
2016-12-21T10:50:13.568Z,290
2016-12-21T10:51:13.708Z,291
2016-12-21T10:52:13.992Z,291
2016-12-21T10:53:14.183Z,291
2016-12-21T10:54:14.486Z,291
2016-12-21T10:55:14.690Z,290
2016-12-21T10:56:14.850Z,290
2016-12-21T10:57:15.052Z,290
2016-12-21T10:58:15.328Z,291
2016-12-21T10:59:15.581Z,290
2016-12-21T11:00:15.825Z,290
2016-12-21T11:01:16.059Z,291
2016-12-21T11:02:16.394Z,291
2016-12-21T11:03:16.776Z,291
2016-12-21T11:04:16.900Z,290
2016-12-21T11:05:17.063Z,290
2016-12-21T11:06:17.195Z,290
2016-12-21T11:07:17.437Z,291
2016-12-21T11:08:17.571Z,290
2016-12-21T11:09:17.696Z,291
2016-12-21T11:10:18.056Z,290
2016-12-21T11:11:18.152Z,291
2016-12-21T11:12:18.419Z,290
2016-12-21T11:13:18.516Z,290
2016-12-21T11:14:18.804Z,291
2016-12-21T11:15:18.939Z,290
2016-12-21T11:16:19.248Z,290
2016-12-21T11:17:19.364Z,291
2016-12-21T11:18:19.575Z,290
2016-12-21T11:19:19.831Z,290
2016-12-21T11:20:20.021Z,290
2016-12-21T11:21:20.258Z,290
2016-12-21T11:22:20.508Z,290
2016-12-21T11:23:20.647Z,290
2016-12-21T11:24:20.755Z,291
2016-12-21T11:25:20.941Z,290
2016-12-21T11:26:21.085Z,290
2016-12-21T11:27:21.317Z,290
2016-12-21T11:28:21.578Z,290
2016-12-21T11:29:21.825Z,291
2016-12-21T11:30:21.991Z,291
2016-12-21T11:31:22.239Z,290
2016-12-21T11:32:22.681Z,290
2016-12-21T11:33:22.886Z,290
2016-12-21T11:34:23.087Z,290
2016-12-21T11:35:23.388Z,290
2016-12-21T11:36:23.590Z,291
2016-12-21T11:37:23.759Z,291
2016-12-21T11:38:23.990Z,290
2016-12-21T11:39:24.118Z,290
2016-12-21T11:40:24.338Z,290
2016-12-21T11:41:24.566Z,290
2016-12-21T11:42:24.734Z,290
2016-12-21T11:43:24.966Z,291
2016-12-21T11:44:25.118Z,291
2016-12-21T11:45:25.356Z,291
2016-12-21T11:46:25.567Z,290
2016-12-21T11:47:25.794Z,290
2016-12-21T11:48:25.991Z,291
2016-12-21T11:49:26.170Z,290
2016-12-21T11:50:26.294Z,290
2016-12-21T11:51:26.511Z,290
2016-12-21T11:52:26.745Z,290
2016-12-21T11:53:26.798Z,290
2016-12-21T11:54:26.975Z,290
2016-12-21T11:55:27.252Z,290
2016-12-21T11:56:27.412Z,290
2016-12-21T11:57:27.616Z,291
2016-12-21T11:58:27.833Z,290
2016-12-21T11:59:27.983Z,290
2016-12-21T12:00:28.233Z,290
2016-12-21T12:01:28.493Z,290
2016-12-21T12:02:28.545Z,290
2016-12-21T12:03:28.828Z,291
2016-12-21T12:04:29.095Z,290
2016-12-21T12:05:29.336Z,290
2016-12-21T12:06:29.563Z,290
2016-12-21T12:07:29.830Z,290
2016-12-21T12:08:29.941Z,290
2016-12-21T12:09:30.066Z,290
2016-12-21T12:10:30.272Z,290
2016-12-21T12:11:30.538Z,290
2016-12-21T12:12:30.700Z,291
2016-12-21T12:13:30.876Z,290
2016-12-21T12:14:31.058Z,290
2016-12-21T12:15:31.362Z,290
2016-12-21T12:16:31.691Z,291
2016-12-21T12:17:31.855Z,290
2016-12-21T12:18:32.160Z,291
2016-12-21T12:19:32.367Z,290
2016-12-21T12:20:32.479Z,290
2016-12-21T12:21:32.771Z,290
2016-12-21T12:22:33.037Z,290
2016-12-21T12:23:33.160Z,290
2016-12-21T12:24:33.321Z,290
2016-12-21T12:25:33.462Z,290
2016-12-21T12:26:33.585Z,291
2016-12-21T12:27:33.744Z,290
2016-12-21T12:28:33.921Z,290
2016-12-21T12:29:34.129Z,290
2016-12-21T12:30:34.272Z,290
2016-12-21T12:31:34.493Z,290
2016-12-21T12:32:34.708Z,290
2016-12-21T12:33:34.899Z,290
2016-12-21T12:34:35.134Z,290
2016-12-21T12:35:35.243Z,290
2016-12-21T12:36:35.391Z,290
2016-12-21T12:37:35.609Z,290
2016-12-21T12:38:35.815Z,290
2016-12-21T12:39:35.955Z,290
2016-12-21T12:40:36.164Z,290
2016-12-21T12:41:36.474Z,256
2016-12-21T12:42:36.610Z,246
2016-12-21T12:43:36.774Z,279
2016-12-21T12:44:36.880Z,280
2016-12-21T12:45:37.089Z,282
2016-12-21T12:46:37.262Z,282
2016-12-21T12:47:37.494Z,282
2016-12-21T12:48:37.655Z,282
2016-12-21T12:49:37.883Z,282
2016-12-21T12:50:38.015Z,282
2016-12-21T12:51:38.178Z,282
2016-12-21T12:52:38.348Z,282
2016-12-21T12:53:38.560Z,282
2016-12-21T12:54:38.737Z,282
2016-12-21T12:55:39.020Z,282
2016-12-21T12:56:39.140Z,282
2016-12-21T12:57:39.330Z,282
2016-12-21T12:58:39.549Z,283
2016-12-21T12:59:39.798Z,282
2016-12-21T13:00:40.031Z,282
2016-12-21T13:01:40.222Z,282
2016-12-21T13:02:40.382Z,282
2016-12-21T13:03:40.671Z,273
2016-12-21T13:04:40.822Z,254
2016-12-21T13:05:41.107Z,279
2016-12-21T13:06:41.371Z,271
2016-12-21T13:07:41.516Z,282
2016-12-21T13:08:41.566Z,253
2016-12-21T13:09:41.755Z,280
2016-12-21T13:10:42.017Z,280
2016-12-21T13:11:42.281Z,281
2016-12-21T13:12:42.386Z,281
2016-12-21T13:13:42.657Z,281
2016-12-21T13:14:42.828Z,280
2016-12-21T13:15:43.214Z,283
2016-12-21T13:16:43.366Z,283
2016-12-21T13:17:43.538Z,283
2016-12-21T13:18:43.755Z,283
2016-12-21T13:19:43.997Z,283
2016-12-21T13:20:44.237Z,283
2016-12-21T13:21:44.507Z,283
2016-12-21T13:22:44.562Z,283
2016-12-21T13:23:44.740Z,283
2016-12-21T13:24:45.009Z,284
2016-12-21T13:25:45.171Z,284
2016-12-21T13:26:45.340Z,284
2016-12-21T13:27:45.454Z,283
2016-12-21T13:28:45.675Z,283
2016-12-21T13:29:45.890Z,283
2016-12-21T13:30:46.206Z,283
2016-12-21T13:31:46.381Z,283
2016-12-21T13:32:46.518Z,283
2016-12-21T13:33:46.785Z,284
2016-12-21T13:34:46.996Z,283
2016-12-21T13:35:47.228Z,280
2016-12-21T13:36:47.420Z,280
2016-12-21T13:37:47.712Z,280
2016-12-21T13:38:47.899Z,281
2016-12-21T13:39:48.158Z,281
2016-12-21T13:40:48.340Z,281
2016-12-21T13:41:48.452Z,281
2016-12-21T13:42:48.655Z,281
2016-12-21T13:43:48.827Z,281
2016-12-21T13:44:48.974Z,281
2016-12-21T13:45:49.207Z,281
2016-12-21T13:46:49.392Z,281
2016-12-21T13:47:49.633Z,281
2016-12-21T13:48:49.938Z,281
2016-12-21T13:49:50.062Z,281
2016-12-21T13:50:50.184Z,281
2016-12-21T13:51:50.278Z,281
2016-12-21T13:52:50.560Z,281
2016-12-21T13:53:50.653Z,279
2016-12-21T13:54:50.824Z,281
2016-12-21T13:55:50.958Z,279
2016-12-21T13:56:51.168Z,281
2016-12-21T13:57:51.292Z,280
2016-12-21T13:58:51.528Z,280
2016-12-21T13:59:51.832Z,249
2016-12-21T14:00:51.879Z,282
2016-12-21T14:01:52.124Z,281
2016-12-21T14:02:52.358Z,281
2016-12-21T14:03:52.505Z,281
2016-12-21T14:04:52.717Z,281
2016-12-21T14:05:52.867Z,283
2016-12-21T14:06:53.077Z,282
2016-12-21T14:07:53.277Z,283
2016-12-21T14:08:53.522Z,283
2016-12-21T14:09:53.683Z,284
2016-12-21T14:10:53.830Z,282
2016-12-21T14:11:54.049Z,282
2016-12-21T14:12:54.248Z,282
2016-12-21T14:13:54.387Z,282
2016-12-21T14:14:54.574Z,281
2016-12-21T14:15:54.865Z,282
2016-12-21T14:16:55.035Z,282
2016-12-21T14:17:55.190Z,281
2016-12-21T14:18:55.377Z,281
2016-12-21T14:19:55.586Z,281
2016-12-21T14:20:55.738Z,282
2016-12-21T14:21:55.908Z,281
2016-12-21T14:22:56.125Z,282
2016-12-21T14:23:56.252Z,275
2016-12-21T14:24:56.449Z,283
2016-12-21T14:25:56.544Z,279
2016-12-21T14:26:56.684Z,281
2016-12-21T14:27:56.796Z,269
2016-12-21T14:28:56.994Z,278
2016-12-21T14:29:57.128Z,280
2016-12-21T14:30:57.377Z,250
2016-12-21T14:31:57.573Z,278
2016-12-21T14:32:57.933Z,280
2016-12-21T14:33:58.148Z,280
2016-12-21T14:34:58.350Z,279
2016-12-21T14:35:58.481Z,282
2016-12-21T14:36:58.621Z,281
2016-12-21T14:37:58.927Z,282
2016-12-21T14:38:59.023Z,281
2016-12-21T14:39:59.154Z,282
2016-12-21T14:40:59.300Z,282
2016-12-21T14:41:59.463Z,282
2016-12-21T14:42:59.768Z,282
2016-12-21T14:43:59.929Z,282
2016-12-21T14:45:00.110Z,283
2016-12-21T14:46:00.352Z,282
2016-12-21T14:47:00.610Z,282
2016-12-21T14:48:00.817Z,282
2016-12-21T14:49:01.016Z,282
2016-12-21T14:50:01.203Z,282
2016-12-21T14:51:01.436Z,282
2016-12-21T14:52:01.780Z,282
2016-12-21T14:53:01.963Z,283
2016-12-21T14:54:02.078Z,282
2016-12-21T14:55:02.218Z,283
2016-12-21T14:56:02.486Z,283
2016-12-21T14:57:02.603Z,283
2016-12-21T14:58:02.890Z,282
2016-12-21T14:59:03.062Z,283
2016-12-21T15:00:03.326Z,283
2016-12-21T15:01:03.484Z,283
2016-12-21T15:02:03.689Z,282
2016-12-21T15:03:03.864Z,282
2016-12-21T15:04:03.998Z,282
2016-12-21T15:05:04.034Z,283
2016-12-21T15:06:04.217Z,282
2016-12-21T15:07:04.316Z,283
2016-12-21T15:08:04.547Z,283
2016-12-21T15:09:04.752Z,282
2016-12-21T15:10:05.003Z,284
2016-12-21T15:11:05.188Z,282
2016-12-21T15:12:05.495Z,283
2016-12-21T15:13:05.822Z,283
2016-12-21T15:14:06.023Z,282
2016-12-21T15:15:06.290Z,282
2016-12-21T15:16:06.445Z,282
2016-12-21T15:17:06.650Z,282
2016-12-21T15:18:06.805Z,283
2016-12-21T15:19:07.074Z,282
2016-12-21T15:20:07.138Z,282
2016-12-21T15:21:07.449Z,283
2016-12-21T15:22:07.645Z,283
2016-12-21T15:23:07.808Z,283
2016-12-21T15:24:08.132Z,283
2016-12-21T15:25:08.271Z,283
2016-12-21T15:26:08.466Z,282
2016-12-21T15:27:08.799Z,282
2016-12-21T15:28:08.908Z,282
2016-12-21T15:29:09.232Z,283
2016-12-21T15:30:09.373Z,283
2016-12-21T15:31:09.537Z,283
2016-12-21T15:32:09.743Z,282
2016-12-21T15:33:09.930Z,283
2016-12-21T15:34:10.179Z,282
2016-12-21T15:35:10.373Z,282
2016-12-21T15:36:10.563Z,283
2016-12-21T15:37:10.734Z,283
2016-12-21T15:38:11.057Z,283
2016-12-21T15:39:11.207Z,282
2016-12-21T15:40:11.399Z,283
2016-12-21T15:41:11.636Z,283
2016-12-21T15:42:11.785Z,283
2016-12-21T15:43:11.919Z,283
2016-12-21T15:44:12.115Z,282
2016-12-21T15:45:12.304Z,268
2016-12-21T15:46:12.544Z,280
2016-12-21T15:47:12.815Z,279
2016-12-21T15:48:13.137Z,281
2016-12-21T15:49:13.343Z,282
2016-12-21T15:50:13.482Z,283
2016-12-21T15:51:13.679Z,283
2016-12-21T15:52:14.081Z,282
2016-12-21T15:53:14.030Z,283
2016-12-21T15:54:14.310Z,282
2016-12-21T15:55:14.436Z,282
2016-12-21T15:56:14.788Z,282
2016-12-21T15:57:14.921Z,282
2016-12-21T15:58:15.076Z,283
2016-12-21T15:59:15.211Z,283
2016-12-21T16:00:15.367Z,282
2016-12-21T16:01:15.559Z,283
2016-12-21T16:02:15.721Z,283
2016-12-21T16:03:16.004Z,282
2016-12-21T16:04:16.164Z,260
2016-12-21T16:05:16.325Z,281
2016-12-21T16:06:16.440Z,281
2016-12-21T16:07:16.567Z,280
2016-12-21T16:08:16.817Z,280
2016-12-21T16:09:17.050Z,281
2016-12-21T16:10:17.236Z,281
2016-12-21T16:11:17.487Z,281
2016-12-21T16:12:17.663Z,281
2016-12-21T16:13:17.913Z,282
2016-12-21T16:14:18.097Z,282
2016-12-21T16:15:18.286Z,282
2016-12-21T16:16:18.421Z,282
2016-12-21T16:17:18.693Z,282
2016-12-21T16:18:18.954Z,283
2016-12-21T16:19:19.191Z,283
2016-12-21T16:20:19.276Z,282
2016-12-21T16:21:19.553Z,283
2016-12-21T16:22:19.764Z,283
2016-12-21T16:23:19.897Z,283
2016-12-21T16:24:20.113Z,283
2016-12-21T16:25:20.279Z,283
2016-12-21T16:26:20.564Z,283
2016-12-21T16:27:20.714Z,283
2016-12-21T16:28:21.044Z,283
2016-12-21T16:29:21.271Z,282
2016-12-21T16:30:21.350Z,283
2016-12-21T16:31:21.663Z,282
2016-12-21T16:32:21.776Z,283
2016-12-21T16:33:22.035Z,283
2016-12-21T16:34:22.213Z,283
2016-12-21T16:35:22.468Z,283
2016-12-21T16:36:22.812Z,283
2016-12-21T16:37:23.010Z,283
2016-12-21T16:38:23.163Z,283